ADDS METAR Data INFO
IDs: Format: Raw Decoded Include TAF

Data at: 0259 UTC 21 Oct 2017

KTYS 210253Z 08004KT 10SM FEW002 BKN250 13/12 A3022 RMK AO2 SLP229 T01280122 52008 $
KTYS 210206Z 05003KT 10SM FEW002 BKN250 14/12 A3021 RMK AO2 T01390122 $
KTYS 210153Z 00000KT 10SM BKN250 16/13 A3021 RMK AO2 SLP225 T01560128 $
KTYS 210053Z 22004KT 10SM BKN250 16/13 A3020 RMK AO2 SLP225 T01610128 $
KTYS 202353Z 03003KT 10SM BKN250 18/12 A3019 RMK AO2 SLP220 T01830122 10250 20178 53001 $
KTYS 202253Z 36005KT 10SM BKN250 20/12 A3018 RMK AO2 SLP216 T02000117 $
KTYS 202153Z 03003KT 10SM BKN250 24/12 A3018 RMK AO2 SLP215 T02390117 $
KTYS 202053Z 08004KT 10SM SCT250 24/11 A3019 RMK AO2 SLP217 T02440111 56020 $
KTYS 201953Z 06005KT 10SM BKN250 24/10 A3021 RMK AO2 SLP223 T02440100 $
KTYS 201853Z 03007KT 10SM SCT250 24/11 A3022 RMK AO2 SLP229 T02390106 $
KTYS 201753Z 03007KT 10SM SCT250 22/11 A3025 RMK AO2 SLP239 T02220106 10222 20072 58028 $
KTYS 201653Z 01005KT 10SM SCT250 20/11 A3029 RMK AO2 SLP251 T02000106 $
KTYS 201553Z 05007KT 10SM FEW250 18/10 A3031 RMK A02 SLP261 T01780117
KTYS 201453Z 00000KT 10SM FEW250 14/11 A3033 RMK AO2 SLP269 T01440111 50006 $
KTYS 201353Z 07003KT 10SM FEW250 11/10 A3034 RMK AO2 SLP272 T01110100 $
KTYS 201253Z 00000KT 10SM FEW150 FEW250 09/09 A3033 RMK AO2 SLP270 T00940089 $
KTYS 201153Z 00000KT 10SM FEW250 08/08 A3032 RMK AO2 SLP263 T00780078 10094 20072 51016 $
KTYS 201053Z 00000KT 10SM CLR 07/07 A3031 RMK AO2 SLP259 T00720072
KTYS 200953Z 00000KT 10SM CLR 07/07 A3028 RMK AO2 SLP252 T00720072
KTYS 200853Z 00000KT 10SM FEW002 08/08 A3027 RMK AO2 SLP245 T00780078 50001
KTYS 200753Z 00000KT 10SM SCT002 09/09 A3027 RMK AO2 SLP246 T00890089
KTYS 200653Z 00000KT 10SM FEW002 08/08 A3027 RMK AO2 SLP246 T00830083
KTYS 200553Z 00000KT 10SM FEW002 09/09 A3027 RMK AO2 SLP246 T00890089 10178 20089 55001
KTYS 200500Z 00000KT 10SM SCT002 11/09 A3026 RMK AO2 T01110094
KTYS 200453Z COR 00000KT 10SM SCT002 12/10 A3026 RMK AO2 SLP243 T01170100 402220050
KTYS 200353Z 17004KT 10SM FEW002 11/09 A3027 RMK AO2 SLP247 T01060094
KTYS 200253Z 00000KT 10SM FEW002 12/10 A3027 RMK AO2 SLP246 FU FEW002 T01220100 53005
KTYS 200245Z 00000KT 10SM FEW002 13/10 A3027 RMK AO2 FU FEW002 T01280100
KTYS 200153Z 06003KT 10SM CLR 13/10 A3026 RMK AO2 SLP245 T01280100
KTYS 200053Z 07003KT 10SM CLR 13/09 A3026 RMK AO2 SLP245 T01330094
KTYS 192353Z 00000KT 10SM CLR 18/08 A3025 RMK AO2 SLP242 T01780078 10222 20172 53003
KTYS 192253Z 28003KT 10SM CLR 19/07 A3024 RMK AO2 SLP237 T01940072
KTYS 192153Z 00000KT 10SM FEW250 22/07 A3024 RMK AO2 SLP237 T02170067
KTYS 192053Z 00000KT 10SM FEW250 22/06 A3024 RMK AO2 SLP237 T02170056 56020
KTYS 191953Z 28003KT 10SM FEW250 22/07 A3026 RMK AO2 SLP244 T02170072
KTYS 191853Z 27003KT 10SM FEW250 21/08 A3028 RMK AO2 SLP248 T02110078
KTYS 191753Z 12003KT 10SM CLR 19/09 A3031 RMK AO2 SLP259 T01940089 10194 20061 58017 $
KTYS 191653Z 00000KT 10SM CLR 18/10 A3033 RMK A02 SLP269 T01830100
KTYS 191553Z 26003KT 10SM CLR 17/11 A3035 RMK AO2 SLP274 T01670106 $